METAR Rapporter

 

EKOD - Odense/Beldringe, Denmark
Distance from station: NNV 51km
Opdateret: 21/02/2018 15:50
Klart
Klart
 Vind retning V
Vind: V 9 km/h
Temperatur: 3°C
Wind Chill: 0°C
Dugpunkt: -4°C
Fugtighed: 60%
Barometer: 1026 hPa
Oversigt: Klart
Visibility: greater than 10 km
2018/02/21 14:50 EKOD 211450Z 28005KT 250V310 CAVOK 03/M04 Q1026
EKSB - Sonderborg Airpo, Denmark
Distance from station: V 53km
Opdateret: 21/02/2018 15:50
Delvist skyet
Delvist skyet
 Vind retning VNV
Vind: VNV 6 km/h
Temperatur: 3°C
Dugpunkt: -4°C
Fugtighed: 60%
Barometer: 1027 hPa
Clouds: Delvist skyet
Visibility: 10 km
Cloud details: Few Clouds 1067 m
Delvist skyet 6706 m
2018/02/21 14:50 EKSB 211450Z 30003KT 9999 FEW035 SCT220 03/M04 Q1027
 
EKSP - Skrydstrup(Dan-A, Denmark
Distance from station: VNV 88km
Opdateret: 21/02/2018 15:50
Klart
Klart
 Vind retning V
Vind: V 9 km/h
Temperatur: 3°C
Wind Chill: 0°C
Dugpunkt: -5°C
Fugtighed: 56%
Barometer: 1027 hPa
Oversigt: Klart
Visibility: greater than 10 km
2018/02/21 14:50 EKSP 211450Z 27005KT 240V300 CAVOK 03/M05 Q1027 NOSIG
EKVD - Vamdrup (aut/Man, Denmark
Distance from station: VNV 92km
Opdateret: 21/02/2018 15:50
Klart
Klart
 Vind retning V
Vind: V 9 km/h
Temperatur: 3°C
Wind Chill: 0°C
Dugpunkt: -3°C
Fugtighed: 65%
Barometer: 1027 hPa
Oversigt: Klart
Visibility: greater than 10 km
2018/02/21 14:50 EKVD 211450Z 26005KT CAVOK 03/M03 Q1027